Time;durP1;ratioP1;P1;durP2;ratioP2;P2;SDS_P1;SDS_P2;PMS_P1;PMS_P2;Temp;Humidity;BMP_temperature;BMP_pressure;BME280_temperature;BME280_humidity;BME280_pressure;Samples;Min_cycle;Max_cycle;Signal;HPM_P1;HPM_P2
2022/09/12 00:01:08;;;;;;;0.10;0.10;;;14.80;99.90;;;;;;5058216;28;20044;-84
2022/09/12 00:03:34;;;;;;;0.00;0.00;;;14.70;99.90;;;;;;5074609;28;20056;-84
2022/09/12 00:06:00;;;;;;;0.20;0.20;;;14.70;99.90;;;;;;5074881;28;20045;-84
2022/09/12 00:08:25;;;;;;;0.00;0.00;;;14.70;99.90;;;;;;5058611;28;20123;-84
2022/09/12 00:10:51;;;;;;;0.10;0.00;;;14.70;99.90;;;;;;5057900;28;20044;-83
2022/09/12 00:13:17;;;;;;;0.00;0.00;;;14.60;99.90;;;;;;5074592;28;20044;-84
2022/09/12 00:15:43;;;;;;;0.00;0.00;;;14.60;99.90;;;;;;5074569;28;20388;-84
2022/09/12 00:18:13;;;;;;;0.00;0.00;;;14.60;99.90;;;;;;5057720;28;20177;-84
2022/09/12 00:20:44;;;;;;;0.00;0.00;;;14.60;99.90;;;;;;5058491;28;20419;-84
2022/09/12 00:23:13;;;;;;;0.00;0.00;;;14.60;99.90;;;;;;5058141;28;20060;-84
2022/09/12 00:25:47;;;;;;;0.30;0.22;;;14.60;99.90;;;;;;5057774;28;20040;-84
2022/09/12 00:28:15;;;;;;;0.00;0.00;;;14.60;99.90;;;;;;5074385;28;20040;-84
2022/09/12 00:30:47;;;;;;;0.32;0.28;;;14.60;99.90;;;;;;5057121;28;20110;-84
2022/09/12 00:33:15;;;;;;;0.08;0.08;;;14.60;99.90;;;;;;5074249;28;20055;-84
2022/09/12 00:35:51;;;;;;;0.00;0.00;;;14.60;99.90;;;;;;5074353;28;20056;-83
2022/09/12 00:38:18;;;;;;;0.00;0.00;;;14.50;99.90;;;;;;5057256;28;20052;-83
2022/09/12 00:40:44;;;;;;;0.00;0.00;;;14.50;99.90;;;;;;5074069;28;20127;-83
2022/09/12 00:43:28;;;;;;;0.00;0.00;;;14.50;99.90;;;;;;5057452;28;20396;-84
2022/09/12 00:45:55;;;;;;;0.00;0.00;;;14.50;99.90;;;;;;5057297;28;20078;-84
2022/09/12 00:48:29;;;;;;;2.38;0.32;;;14.50;99.90;;;;;;5057166;28;20048;-84
2022/09/12 00:50:55;;;;;;;;;;;14.40;99.90;;;;;;5058048;28;20041;-84
2022/09/12 00:53:21;;;;;;;0.10;0.10;;;14.40;99.90;;;;;;5107277;28;19927;-83
2022/09/12 00:55:50;;;;;;;0.57;0.05;;;14.40;99.90;;;;;;5074516;28;20111;-83
2022/09/12 00:58:29;;;;;;;0.00;0.00;;;14.40;99.90;;;;;;5074113;28;20059;-84
2022/09/12 01:00:57;;;;;;;0.03;0.03;;;14.40;99.90;;;;;;5073762;28;20044;-83
2022/09/12 01:03:24;;;;;;;0.22;0.15;;;14.40;99.90;;;;;;5073670;28;20051;-84
2022/09/12 01:06:09;;;;;;;0.00;0.00;;;14.40;99.90;;;;;;5073591;28;20051;-84
2022/09/12 01:08:36;;;;;;;0.03;0.03;;;14.30;99.90;;;;;;5073720;28;20051;-84
2022/09/12 01:11:04;;;;;;;0.00;0.00;;;14.30;99.90;;;;;;5073550;28;20128;-84
2022/09/12 01:13:32;;;;;;;0.00;0.00;;;14.30;99.90;;;;;;5056967;28;20055;-84
2022/09/12 01:15:58;;;;;;;2.90;0.00;;;14.20;99.90;;;;;;5056881;28;20048;-83
2022/09/12 01:18:29;;;;;;;0.00;0.00;;;14.20;99.90;;;;;;5056598;28;20420;-84
2022/09/12 01:21:04;;;;;;;0.10;0.03;;;14.20;99.90;;;;;;5074065;28;20052;-83
2022/09/12 01:23:35;;;;;;;0.00;0.00;;;14.20;99.90;;;;;;5073532;28;20419;-83
2022/09/12 01:26:39;;;;;;;0.20;0.10;;;14.10;99.90;;;;;;5056944;28;20396;-84
2022/09/12 01:29:29;;;;;;;0.00;0.00;;;14.10;99.90;;;;;;5056769;28;20040;-84
2022/09/12 01:32:14;;;;;;;0.00;0.00;;;14.10;99.90;;;;;;5073556;28;20494;-84
2022/09/12 01:34:52;;;;;;;0.00;0.00;;;14.10;99.90;;;;;;5056637;28;20070;-83
2022/09/12 01:37:41;;;;;;;0.30;0.00;;;14.00;99.90;;;;;;5056355;28;20052;-84
2022/09/12 01:40:27;;;;;;;0.35;0.22;;;14.00;99.90;;;;;;5073036;28;20059;-83
2022/09/12 01:43:17;;;;;;;0.00;0.00;;;13.90;99.90;;;;;;5072563;28;20053;-84
2022/09/12 01:45:48;;;;;;;0.00;0.00;;;13.90;99.90;;;;;;5073085;28;20182;-84
2022/09/12 01:48:18;;;;;;;0.00;0.00;;;13.80;99.90;;;;;;5072192;28;20523;-84
2022/09/12 01:50:59;;;;;;;0.20;0.00;;;13.90;99.90;;;;;;5071985;28;20064;-84
2022/09/12 01:53:33;;;;;;;0.57;0.15;;;13.80;99.90;;;;;;5070534;28;20056;-84
2022/09/12 01:56:02;;;;;;;;;;;13.80;99.90;;;;;;5056641;28;20113;-84
2022/09/12 01:58:49;;;;;;;0.00;0.00;;;13.90;99.90;;;;;;5072651;28;19920;-84
2022/09/12 02:01:28;;;;;;;0.00;0.00;;;13.90;99.90;;;;;;5072979;28;20052;-84
2022/09/12 02:04:08;;;;;;;0.00;0.00;;;13.80;99.90;;;;;;5072883;28;20056;-84
2022/09/12 02:06:47;;;;;;;0.80;0.00;;;13.80;99.90;;;;;;5073472;28;20051;-84
2022/09/12 02:09:25;;;;;;;0.00;0.00;;;13.80;99.90;;;;;;5056698;28;20048;-84
2022/09/12 02:11:56;;;;;;;0.82;0.10;;;13.70;99.90;;;;;;5072907;28;20040;-84
2022/09/12 02:14:29;;;;;;;0.77;0.68;;;13.80;99.90;;;;;;5056163;28;20139;-84
2022/09/12 02:17:01;;;;;;;0.00;0.00;;;13.80;99.90;;;;;;5072776;28;20041;-84
2022/09/12 02:19:30;;;;;;;0.05;0.03;;;13.80;99.90;;;;;;5055860;28;20434;-84
2022/09/12 02:22:00;;;;;;;1.08;0.52;;;13.70;99.90;;;;;;5055670;28;20044;-84
2022/09/12 02:24:38;;;;;;;0.10;0.10;;;13.70;99.90;;;;;;5072468;28;20484;-84
2022/09/12 02:27:39;;;;;;;0.20;0.20;;;13.70;99.90;;;;;;5055823;28;20519;-84
2022/09/12 02:30:06;;;;;;;0.00;0.00;;;13.70;99.90;;;;;;5072476;28;20090;-84
2022/09/12 02:32:56;;;;;;;0.00;0.00;;;13.70;99.90;;;;;;5056022;28;20099;-84
2022/09/12 02:35:56;;;;;;;0.00;0.00;;;13.70;99.90;;;;;;5056501;28;20083;-84
2022/09/12 02:38:40;;;;;;;0.00;0.00;;;13.70;99.90;;;;;;5056422;28;20480;-84
2022/09/12 02:41:06;;;;;;;0.00;0.00;;;13.70;99.90;;;;;;5073034;28;20087;-84
2022/09/12 02:43:32;;;;;;;0.00;0.00;;;13.60;99.90;;;;;;5056496;28;20115;-84
2022/09/12 02:45:57;;;;;;;0.10;0.10;;;13.60;99.90;;;;;;5056200;28;20048;-84
2022/09/12 02:48:28;;;;;;;0.63;0.32;;;13.50;99.90;;;;;;5072779;28;20715;-84
2022/09/12 02:50:54;;;;;;;0.00;0.00;;;13.50;99.90;;;;;;5072535;28;20488;-84
2022/09/12 02:53:21;;;;;;;0.35;0.35;;;13.50;99.90;;;;;;5057373;28;20416;-83
2022/09/12 02:55:47;;;;;;;0.20;0.20;;;13.50;99.90;;;;;;5059299;28;20048;-84
2022/09/12 02:58:19;;;;;;;0.10;0.10;;;13.50;99.90;;;;;;5059051;28;20454;-84
2022/09/12 03:01:08;;;;;;;0.00;0.00;;;13.40;99.90;;;;;;5059948;28;20054;-84
2022/09/12 03:03:57;;;;;;;0.10;0.10;;;13.40;99.90;;;;;;5058745;28;20503;-84
2022/09/12 03:06:46;;;;;;;0.00;0.00;;;13.30;99.90;;;;;;5076054;28;20059;-84
2022/09/12 03:09:36;;;;;;;0.00;0.00;;;13.20;99.90;;;;;;5059574;28;20391;-84
2022/09/12 03:12:02;;;;;;;0.00;0.00;;;13.10;99.90;;;;;;5075967;28;20041;-84
2022/09/12 03:15:26;;;;;;;0.10;0.10;;;13.10;99.90;;;;;;5075568;28;20377;-84
2022/09/12 03:18:22;;;;;;;0.00;0.00;;;13.10;99.90;;;;;;5037894;28;20045;-84
2022/09/12 03:21:02;;;;;;;0.00;0.00;;;13.10;99.90;;;;;;5038231;28;20049;-84
2022/09/12 03:23:45;;;;;;;0.00;0.00;;;13.10;99.90;;;;;;5038100;28;20041;-84
2022/09/12 03:26:24;;;;;;;0.10;0.10;;;13.10;99.90;;;;;;5021961;28;20053;-84
2022/09/12 03:28:53;;;;;;;0.38;0.10;;;13.10;99.90;;;;;;5037975;28;20136;-84
2022/09/12 03:31:19;;;;;;;0.00;0.00;;;13.00;99.90;;;;;;5037774;28;20103;-84
2022/09/12 03:33:45;;;;;;;0.00;0.00;;;13.00;99.90;;;;;;5021336;28;20048;-84
2022/09/12 03:36:25;;;;;;;0.00;0.00;;;13.00;99.90;;;;;;5021247;28;20041;-84
2022/09/12 03:38:51;;;;;;;0.20;0.00;;;13.00;99.90;;;;;;5020635;28;20504;-85
2022/09/12 03:41:17;;;;;;;0.28;0.28;;;13.00;99.90;;;;;;5054255;28;20049;-84
2022/09/12 03:43:42;;;;;;;3.60;0.60;;;13.00;99.90;;;;;;5037369;28;20045;-84
2022/09/12 03:46:08;;;;;;;0.50;0.38;;;12.90;99.90;;;;;;5020587;28;20053;-84
2022/09/12 03:48:34;;;;;;;0.00;0.00;;;12.90;99.90;;;;;;5037527;28;20049;-84
2022/09/12 03:51:05;;;;;;;0.17;0.17;;;12.90;99.90;;;;;;5047297;28;20052;-84
2022/09/12 03:53:31;;;;;;;0.00;0.00;;;12.90;99.90;;;;;;5074963;28;20057;-84
2022/09/12 03:55:57;;;;;;;0.17;0.10;;;12.80;99.90;;;;;;5058133;28;20036;-85
2022/09/12 03:58:23;;;;;;;0.10;0.10;;;12.80;99.90;;;;;;5074798;28;20039;-84
2022/09/12 04:00:49;;;;;;;0.10;0.10;;;12.80;99.90;;;;;;5058183;28;20392;-84
2022/09/12 04:03:18;;;;;;;0.00;0.00;;;12.70;99.90;;;;;;5075124;28;20051;-84
2022/09/12 04:05:43;;;;;;;0.00;0.00;;;12.70;99.90;;;;;;5057577;28;20040;-84
2022/09/12 04:08:09;;;;;;;0.00;0.00;;;12.70;99.90;;;;;;5058286;28;20121;-85
2022/09/12 04:10:35;;;;;;;0.88;0.08;;;12.70;99.90;;;;;;5074804;28;20492;-84
2022/09/12 04:13:00;;;;;;;0.00;0.00;;;12.60;99.90;;;;;;5074545;28;20044;-85
2022/09/12 04:15:26;;;;;;;0.00;0.00;;;12.60;99.90;;;;;;5057960;28;20049;-84
2022/09/12 04:17:52;;;;;;;0.00;0.00;;;12.60;99.90;;;;;;5074487;28;20043;-84
2022/09/12 04:20:18;;;;;;;0.00;0.00;;;12.40;99.90;;;;;;5074648;28;20098;-85
2022/09/12 04:22:43;;;;;;;0.20;0.00;;;12.50;99.90;;;;;;5058399;28;20454;-84
2022/09/12 04:25:10;;;;;;;0.10;0.00;;;12.50;99.90;;;;;;5074845;28;20070;-85
2022/09/12 04:27:36;;;;;;;0.28;0.13;;;12.50;99.90;;;;;;5057125;28;20045;-84
2022/09/12 04:30:02;;;;;;;0.00;0.00;;;12.50;99.90;;;;;;5057567;28;20051;-85
2022/09/12 04:32:29;;;;;;;0.10;0.10;;;12.40;99.90;;;;;;5057246;28;20060;-83
2022/09/12 04:34:55;;;;;;;0.00;0.00;;;12.40;99.90;;;;;;5057574;28;20052;-85
2022/09/12 04:37:22;;;;;;;0.00;0.00;;;12.40;99.90;;;;;;5057165;28;20056;-82
2022/09/12 04:39:48;;;;;;;0.00;0.00;;;12.40;99.90;;;;;;5057473;28;20051;-82
2022/09/12 04:42:14;;;;;;;0.00;0.00;;;12.30;99.90;;;;;;5057254;28;20420;-83
2022/09/12 04:44:40;;;;;;;0.20;0.20;;;12.40;99.90;;;;;;5074012;28;20473;-83
2022/09/12 04:47:06;;;;;;;0.45;0.10;;;12.30;99.90;;;;;;5074018;28;20047;-83
2022/09/12 04:49:32;;;;;;;0.00;0.00;;;12.30;99.90;;;;;;5073903;28;20052;-83
2022/09/12 04:51:58;;;;;;;0.00;0.00;;;12.40;99.90;;;;;;5073633;28;20102;-83
2022/09/12 04:54:24;;;;;;;0.20;0.20;;;12.30;99.90;;;;;;5073697;28;20056;-83
2022/09/12 04:56:51;;;;;;;0.00;0.00;;;12.40;99.90;;;;;;5057352;28;20052;-83
2022/09/12 04:59:18;;;;;;;0.25;0.00;;;12.40;99.90;;;;;;5056868;28;20040;-83
2022/09/12 05:01:44;;;;;;;0.10;0.10;;;12.30;99.90;;;;;;5057874;28;20400;-84
2022/09/12 05:04:11;;;;;;;0.10;0.10;;;12.40;99.90;;;;;;5074288;28;20040;-83
2022/09/12 05:06:39;;;;;;;0.00;0.00;;;12.40;99.90;;;;;;5073666;28;20091;-83
2022/09/12 05:09:07;;;;;;;0.00;0.00;;;12.40;99.90;;;;;;5056869;28;20045;-83
2022/09/12 05:11:35;;;;;;;0.55;0.20;;;12.40;99.90;;;;;;5073420;28;20044;-83
2022/09/12 05:14:01;;;;;;;0.30;0.30;;;12.40;99.90;;;;;;5056819;28;20070;-83
2022/09/12 05:16:28;;;;;;;0.00;0.00;;;12.40;99.90;;;;;;5056841;28;20041;-83
2022/09/12 05:18:56;;;;;;;0.25;0.10;;;12.50;99.90;;;;;;5056401;28;20562;-83
2022/09/12 05:21:22;;;;;;;2.05;0.15;;;12.60;99.90;;;;;;5056961;28;20122;-85
2022/09/12 05:23:54;;;;;;;0.15;0.15;;;12.60;99.90;;;;;;5073452;28;20083;-85
2022/09/12 05:26:20;;;;;;;0.10;0.10;;;12.60;99.90;;;;;;5056692;28;20044;-85
2022/09/12 05:28:48;;;;;;;0.00;0.00;;;12.60;99.90;;;;;;5056463;28;20044;-85
2022/09/12 05:31:25;;;;;;;0.10;0.00;;;12.70;99.90;;;;;;5073201;28;20106;-85
2022/09/12 05:33:52;;;;;;;0.30;0.25;;;12.90;99.90;;;;;;5073409;28;20139;-85
2022/09/12 05:36:28;;;;;;;0.00;0.00;;;13.00;99.90;;;;;;5073272;28;20057;-83
2022/09/12 05:38:54;;;;;;;0.10;0.10;;;13.10;99.90;;;;;;5072869;28;20090;-83
2022/09/12 05:41:23;;;;;;;0.00;0.00;;;13.20;99.90;;;;;;5056478;28;20088;-84
2022/09/12 05:43:54;;;;;;;0.28;0.10;;;13.30;99.90;;;;;;5073068;28;20054;-83
2022/09/12 05:46:22;;;;;;;0.13;0.13;;;13.40;99.90;;;;;;5073004;28;20049;-83
2022/09/12 05:48:48;;;;;;;0.00;0.00;;;13.50;99.90;;;;;;5072969;28;20056;-83
2022/09/12 05:51:27;;;;;;;0.17;0.00;;;13.50;99.90;;;;;;5073157;28;20079;-83
2022/09/12 05:53:55;;;;;;;0.10;0.10;;;13.60;99.90;;;;;;5056525;28;20045;-83
2022/09/12 05:56:24;;;;;;;1.75;0.45;;;13.60;99.90;;;;;;5073550;28;20431;-83
2022/09/12 05:59:14;;;;;;;1.85;0.40;;;13.80;99.90;;;;;;5055917;28;20036;-83
2022/09/12 06:01:41;;;;;;;0.00;0.00;;;13.80;99.90;;;;;;5035115;28;20049;-83
2022/09/12 06:04:07;;;;;;;3.00;0.32;;;13.80;99.90;;;;;;5018690;28;20049;-83
2022/09/12 06:06:40;;;;;;;0.10;0.10;;;13.90;99.90;;;;;;5018631;28;20485;-83
2022/09/12 06:09:06;;;;;;;0.40;0.30;;;14.00;99.90;;;;;;5035313;28;20413;-84
2022/09/12 06:11:34;;;;;;;0.10;0.05;;;14.10;99.90;;;;;;5034813;28;20041;-83
2022/09/12 06:14:00;;;;;;;1.23;0.52;;;14.10;99.90;;;;;;5034797;28;20052;-83
2022/09/12 06:16:28;;;;;;;0.20;0.20;;;14.10;99.90;;;;;;5034823;28;20048;-83
2022/09/12 06:18:56;;;;;;;0.10;0.10;;;14.10;99.90;;;;;;5034516;28;20096;-83
2022/09/12 06:21:23;;;;;;;0.00;0.00;;;14.10;99.90;;;;;;5035303;28;20493;-83
2022/09/12 06:23:49;;;;;;;0.10;0.10;;;14.20;99.90;;;;;;5018431;28;20104;-83
2022/09/12 06:26:17;;;;;;;0.00;0.00;;;14.20;99.90;;;;;;5018307;28;20148;-83
2022/09/12 06:28:44;;;;;;;0.13;0.13;;;14.30;99.90;;;;;;5020365;28;20464;-83
2022/09/12 06:31:19;;;;;;;0.00;0.00;;;14.30;99.90;;;;;;5039494;28;20117;-83
2022/09/12 06:33:48;;;;;;;0.10;0.10;;;14.30;99.90;;;;;;5022671;28;20045;-83
2022/09/12 06:36:22;;;;;;;0.40;0.00;;;14.40;99.90;;;;;;5022220;28;20135;-83
2022/09/12 06:38:54;;;;;;;0.10;0.10;;;14.40;99.90;;;;;;5042546;28;20137;-83
2022/09/12 06:41:19;;;;;;;0.25;0.25;;;14.50;99.90;;;;;;5076508;28;20044;-84
2022/09/12 06:43:45;;;;;;;0.28;0.20;;;14.40;99.90;;;;;;5076819;28;20048;-84
2022/09/12 06:46:11;;;;;;;0.00;0.00;;;14.50;99.90;;;;;;5059530;28;20435;-83
2022/09/12 06:48:37;;;;;;;0.35;0.35;;;14.50;99.90;;;;;;5076353;28;20052;-83
2022/09/12 06:51:08;;;;;;;0.00;0.00;;;14.60;99.90;;;;;;5076158;28;20048;-83
2022/09/12 06:53:38;;;;;;;0.52;0.52;;;14.60;99.90;;;;;;5059479;28;20135;-83
2022/09/12 06:56:12;;;;;;;0.20;0.20;;;14.60;99.90;;;;;;5059999;28;20059;-83
2022/09/12 06:58:38;;;;;;;1.98;0.65;;;14.70;99.90;;;;;;5059541;28;20073;-82
2022/09/12 07:01:05;;;;;;;0.00;0.00;;;14.70;99.90;;;;;;5076107;28;20040;-83
2022/09/12 07:03:32;;;;;;;3.38;0.98;;;14.80;99.90;;;;;;5075976;28;20127;-83
2022/09/12 07:06:02;;;;;;;0.20;0.20;;;14.80;99.90;;;;;;5075966;28;20494;-83
2022/09/12 07:08:30;;;;;;;0.10;0.10;;;14.80;99.90;;;;;;5059287;28;20098;-84
2022/09/12 07:10:57;;;;;;;0.17;0.17;;;14.90;99.90;;;;;;5058529;28;20104;-84
2022/09/12 07:13:24;;;;;;;0.82;0.20;;;14.90;99.90;;;;;;5058464;28;20065;-84
2022/09/12 07:15:50;;;;;;;0.20;0.20;;;14.90;99.90;;;;;;5059253;28;20106;-83
2022/09/12 07:18:16;;;;;;;0.25;0.22;;;15.00;99.90;;;;;;5075107;28;20066;-83
2022/09/12 07:20:42;;;;;;;3.10;0.52;;;15.00;99.90;;;;;;5074975;28;20041;-83
2022/09/12 07:23:08;;;;;;;0.00;0.00;;;15.10;99.90;;;;;;5074816;28;20148;-83
2022/09/12 07:25:33;;;;;;;0.28;0.28;;;15.10;99.90;;;;;;5075022;28;20528;-83
2022/09/12 07:27:59;;;;;;;0.52;0.20;;;15.10;99.90;;;;;;5074977;28;20045;-83
2022/09/12 07:30:25;;;;;;;3.90;0.28;;;15.20;99.90;;;;;;5075491;28;20093;-83
2022/09/12 07:32:54;;;;;;;0.50;0.20;;;15.20;99.90;;;;;;5058362;28;20067;-82
2022/09/12 07:35:20;;;;;;;0.15;0.15;;;15.30;99.90;;;;;;5075355;28;20078;-83
2022/09/12 07:37:46;;;;;;;0.10;0.10;;;15.40;99.90;;;;;;5058497;28;20055;-83
2022/09/12 07:40:12;;;;;;;0.10;0.10;;;15.40;99.90;;;;;;5074556;28;20063;-83
2022/09/12 07:42:38;;;;;;;0.05;0.05;;;15.40;99.90;;;;;;5058561;28;20045;-83
2022/09/12 07:45:03;;;;;;;0.90;0.28;;;15.50;99.90;;;;;;5058318;28;20083;-83
2022/09/12 07:47:29;;;;;;;2.78;0.20;;;15.50;99.90;;;;;;5058753;28;20059;-83
2022/09/12 07:49:55;;;;;;;0.20;0.20;;;15.60;99.90;;;;;;5074637;28;20439;-83
2022/09/12 07:52:21;;;;;;;0.20;0.20;;;15.60;99.90;;;;;;5108959;28;20472;-83
2022/09/12 07:54:47;;;;;;;0.00;0.00;;;15.70;99.90;;;;;;5058178;28;20106;-83
2022/09/12 07:57:14;;;;;;;0.00;0.00;;;15.80;99.90;;;;;;5075435;28;20075;-82
2022/09/12 07:59:41;;;;;;;1.65;0.10;;;15.90;99.90;;;;;;5074535;28;20043;-83
2022/09/12 08:02:12;;;;;;;0.20;0.20;;;16.00;99.90;;;;;;5074881;28;20048;-83
2022/09/12 08:04:40;;;;;;;0.08;0.03;;;16.10;99.90;;;;;;5057746;28;20487;-83
2022/09/12 08:07:07;;;;;;;0.00;0.00;;;16.20;99.90;;;;;;5058440;28;20060;-83
2022/09/12 08:09:32;;;;;;;0.20;0.17;;;16.30;99.90;;;;;;5074806;28;20108;-83
2022/09/12 08:11:58;;;;;;;0.10;0.10;;;16.30;99.90;;;;;;5057901;28;20143;-84
2022/09/12 08:14:24;;;;;;;0.00;0.00;;;16.30;99.90;;;;;;5058264;28;20173;-84
2022/09/12 08:16:50;;;;;;;0.03;0.03;;;16.40;99.90;;;;;;5074441;28;20488;-84
2022/09/12 08:19:15;;;;;;;0.10;0.10;;;16.40;99.90;;;;;;5074283;28;20048;-84
2022/09/12 08:21:41;;;;;;;0.75;0.40;;;16.50;99.90;;;;;;5057979;28;20048;-84
2022/09/12 08:24:07;;;;;;;0.80;0.47;;;16.50;99.90;;;;;;5074350;28;20041;-84
2022/09/12 08:26:33;;;;;;;0.28;0.10;;;16.50;99.90;;;;;;5074427;28;20054;-84
2022/09/12 08:28:59;;;;;;;0.10;0.10;;;16.50;99.90;;;;;;5074712;28;20437;-84
2022/09/12 08:31:26;;;;;;;0.00;0.00;;;16.60;99.90;;;;;;5074413;28;20136;-84
2022/09/12 08:33:55;;;;;;;0.10;0.00;;;16.60;99.90;;;;;;5057647;28;20102;-84
2022/09/12 08:36:24;;;;;;;0.17;0.10;;;16.60;99.90;;;;;;5057875;28;20181;-84
2022/09/12 08:38:54;;;;;;;0.52;0.00;;;16.60;99.90;;;;;;5057338;28;20076;-84
2022/09/12 08:42:04;;;;;;;0.63;0.52;;;16.80;99.90;;;;;;5074599;28;20127;-84
2022/09/12 08:44:35;;;;;;;0.30;0.30;;;16.80;99.90;;;;;;5036413;28;20057;-83
2022/09/12 08:47:16;;;;;;;0.15;0.15;;;16.80;99.90;;;;;;5036615;28;20484;-83
2022/09/12 08:49:47;;;;;;;0.00;0.00;;;16.90;99.90;;;;;;5036739;28;20061;-84
2022/09/12 08:52:27;;;;;;;1.60;0.47;;;16.90;99.90;;;;;;5018866;28;20114;-83
2022/09/12 08:54:55;;;;;;;0.17;0.17;;;17.00;99.90;;;;;;5019028;28;20500;-83
2022/09/12 08:57:21;;;;;;;0.50;0.50;;;17.20;99.90;;;;;;5036238;28;20041;-83
2022/09/12 08:59:47;;;;;;;0.35;0.30;;;17.30;99.90;;;;;;5019392;28;20049;-83
2022/09/12 09:02:41;;;;;;;0.35;0.25;;;17.40;99.90;;;;;;5019682;28;20429;-84
2022/09/12 09:05:41;;;;;;;0.20;0.20;;;17.50;99.90;;;;;;5036187;28;20056;-83
2022/09/12 09:08:29;;;;;;;0.85;0.60;;;17.70;99.90;;;;;;5053023;28;20064;-83
2022/09/12 09:11:20;;;;;;;0.10;0.10;;;17.80;99.90;;;;;;5019116;28;20195;-83
2022/09/12 09:16:38;;;;;;;0.30;0.10;;;18.00;99.90;;;;;;5035981;28;20396;-83
2022/09/12 09:19:27;;;;;;;0.75;0.10;;;18.20;99.90;;;;;;5019027;28;20136;-83
2022/09/12 09:22:00;;;;;;;0.32;0.30;;;18.40;99.90;;;;;;5073255;28;20044;-83
2022/09/12 09:24:49;;;;;;;0.57;0.57;;;18.60;99.90;;;;;;5056701;28;20492;-83
2022/09/12 09:27:32;;;;;;;1.05;0.95;;;18.70;99.90;;;;;;5056670;28;20048;-83
2022/09/12 09:29:58;;;;;;;0.77;0.15;;;18.90;99.90;;;;;;5073152;28;20080;-83
2022/09/12 09:32:30;;;;;;;5.85;1.33;;;19.00;99.90;;;;;;5056934;28;20068;-83
2022/09/12 09:34:58;;;;;;;0.03;0.03;;;19.10;99.90;;;;;;5056941;28;20044;-83
2022/09/12 09:37:43;;;;;;;0.38;0.28;;;19.10;99.90;;;;;;5073118;28;20094;-84
2022/09/12 09:40:47;;;;;;;0.30;0.30;;;19.20;99.90;;;;;;5072998;28;20047;-83
2022/09/12 09:43:21;;;;;;;0.40;0.40;;;19.20;99.90;;;;;;5056404;28;20044;-83
2022/09/12 09:45:48;;;;;;;;;;;19.30;99.90;;;;;;5057200;28;20055;-83
2022/09/12 09:48:27;;;;;;;0.22;0.22;;;19.40;99.90;;;;;;5073067;28;19920;-83
2022/09/12 09:50:56;;;;;;;1.27;1.13;;;19.40;99.90;;;;;;5073038;28;20052;-83
2022/09/12 09:53:45;;;;;;;0.00;0.00;;;19.60;99.90;;;;;;5056300;28;20048;-83
2022/09/12 09:56:27;;;;;;;1.77;1.17;;;19.70;99.90;;;;;;5055811;28;20091;-84
2022/09/12 09:58:53;;;;;;;0.60;0.60;;;19.90;99.90;;;;;;5072757;28;20044;-84
2022/09/12 10:01:19;;;;;;;2.28;1.02;;;20.20;99.90;;;;;;5056027;28;20040;-83
2022/09/12 10:03:52;;;;;;;0.55;0.55;;;20.50;99.90;;;;;;5055505;28;20059;-84
2022/09/12 10:06:29;;;;;;;1.00;0.93;;;20.70;99.90;;;;;;5055917;28;20504;-84
2022/09/12 10:09:28;;;;;;;1.90;0.95;;;20.90;99.90;;;;;;5086594;28;20045;-84
2022/09/12 10:11:55;;;;;;;1.67;0.68;;;21.20;99.90;;;;;;5031855;28;20529;-83
2022/09/12 10:14:40;;;;;;;1.33;1.02;;;21.40;99.90;;;;;;4998375;28;20093;-84
2022/09/12 10:17:42;;;;;;;0.60;0.57;;;21.60;99.90;;;;;;4998961;28;20049;-83
2022/09/12 10:20:29;;;;;;;0.50;0.50;;;21.70;99.90;;;;;;4921931;29;20078;-84
2022/09/12 10:22:56;;;;;;;0.22;0.22;;;21.80;99.90;;;;;;4953705;29;20055;-84
2022/09/12 10:25:24;;;;;;;0.50;0.50;;;21.90;99.90;;;;;;4938062;29;20093;-84
2022/09/12 10:27:56;;;;;;;0.73;0.73;;;21.80;99.90;;;;;;4937643;29;20055;-83
2022/09/12 10:30:26;;;;;;;0.43;0.30;;;21.90;99.90;;;;;;4953596;29;20083;-84
2022/09/12 10:32:56;;;;;;;5.07;1.20;;;21.90;99.90;;;;;;4937405;29;20047;-84
2022/09/12 10:35:32;;;;;;;0.38;0.25;;;21.90;99.90;;;;;;4921711;29;20059;-83
2022/09/12 10:38:01;;;;;;;1.08;0.25;;;22.00;99.90;;;;;;4921450;29;20047;-83
2022/09/12 10:40:31;;;;;;;1.45;0.85;;;22.30;99.90;;;;;;4921587;29;20062;-84
2022/09/12 10:43:01;;;;;;;1.15;1.13;;;22.40;99.90;;;;;;4937316;29;20113;-84
2022/09/12 10:45:34;;;;;;;1.05;0.70;;;22.40;99.90;;;;;;4937983;29;20043;-84
2022/09/12 10:48:23;;;;;;;0.13;0.13;;;22.60;99.90;;;;;;4948939;28;20100;-83
2022/09/12 10:50:49;;;;;;;0.38;0.38;;;23.00;99.90;;;;;;4937388;29;20635;-84
2022/09/12 10:53:19;;;;;;;1.23;0.80;;;23.00;99.90;;;;;;4946570;28;20141;-83
2022/09/12 10:56:00;;;;;;;0.88;0.88;;;23.00;99.90;;;;;;4995372;28;20072;-84
2022/09/12 10:58:26;;;;;;;0.73;0.32;;;23.00;99.90;;;;;;4995626;28;20135;-84
2022/09/12 11:01:12;;;;;;;0.52;0.50;;;23.00;99.90;;;;;;4995279;28;20050;-84
2022/09/12 11:04:01;;;;;;;2.15;0.70;;;23.20;99.90;;;;;;4994720;28;20053;-84
2022/09/12 11:06:41;;;;;;;0.10;0.10;;;23.40;99.90;;;;;;4918646;29;20385;-84
2022/09/12 11:09:25;;;;;;;0.35;0.35;;;23.60;99.90;;;;;;4950063;29;20126;-84
2022/09/12 11:12:01;;;;;;;0.30;0.30;;;23.60;99.90;;;;;;4917822;29;20056;-83
2022/09/12 11:14:38;;;;;;;0.20;0.20;;;23.80;99.90;;;;;;4904222;29;20429;-83
2022/09/12 11:17:16;;;;;;;1.42;1.15;;;24.00;99.90;;;;;;4906243;29;20554;-84
2022/09/12 11:19:58;;;;;;;0.95;0.65;;;24.10;99.90;;;;;;4906028;29;20466;-84
2022/09/12 11:22:30;;;;;;;1.88;0.80;;;24.10;99.90;;;;;;4953426;29;20056;-83
2022/09/12 11:25:12;;;;;;;0.63;0.63;;;24.10;99.90;;;;;;4906090;29;20580;-84
2022/09/12 11:27:59;;;;;;;0.10;0.10;;;24.10;99.80;;;;;;4932425;28;20109;-83
2022/09/12 11:30:27;;;;;;;1.58;0.50;;;24.10;99.80;;;;;;4959987;28;20065;-84
2022/09/12 11:33:16;;;;;;;0.93;0.50;;;24.10;99.10;;;;;;4943971;28;20059;-83
2022/09/12 11:35:48;;;;;;;0.38;0.38;;;24.10;97.40;;;;;;4992177;28;20047;-81
2022/09/12 11:38:26;;;;;;;0.73;0.45;;;24.20;99.90;;;;;;4959591;28;20518;-84
2022/09/12 11:40:57;;;;;;;0.40;0.40;;;24.20;98.20;;;;;;4992141;28;20129;-83
2022/09/12 11:43:52;;;;;;;0.25;0.15;;;24.20;97.20;;;;;;5032969;28;20056;-83
2022/09/12 11:46:35;;;;;;;0.40;0.40;;;24.40;99.20;;;;;;5088462;28;20056;-84
2022/09/12 11:49:12;;;;;;;1.95;0.40;;;24.20;97.50;;;;;;5088911;28;20052;-83
2022/09/12 11:51:50;;;;;;;0.50;0.35;;;24.10;98.70;;;;;;5038561;28;20053;-83
2022/09/12 11:54:34;;;;;;;0.10;0.10;;;24.00;97.30;;;;;;5088569;28;20097;-83
2022/09/12 11:57:13;;;;;;;0.43;0.40;;;23.80;98.40;;;;;;5087982;28;20106;-83
2022/09/12 12:00:01;;;;;;;0.20;0.13;;;23.80;97.60;;;;;;5038254;28;20053;-83
2022/09/12 12:02:29;;;;;;;0.00;0.00;;;24.00;99.70;;;;;;5080304;28;20060;-84
2022/09/12 12:05:04;;;;;;;0.75;0.20;;;24.20;96.90;;;;;;5058146;28;20067;-83
2022/09/12 12:07:56;;;;;;;0.17;0.10;;;24.30;97.20;;;;;;5074912;28;20373;-80
2022/09/12 12:10:55;;;;;;;0.60;0.38;;;24.50;97.00;;;;;;5057639;28;20037;-83
2022/09/12 12:13:44;;;;;;;0.57;0.10;;;24.50;97.00;;;;;;5037227;28;20080;-83
2022/09/12 12:16:15;;;;;;;0.68;0.10;;;24.70;97.40;;;;;;5020496;28;20582;-83
2022/09/12 12:18:42;;;;;;;0.10;0.10;;;24.90;96.00;;;;;;5053447;28;20053;-83
2022/09/12 12:21:32;;;;;;;0.90;0.43;;;25.00;96.30;;;;;;5021038;28;20583;-84
2022/09/12 12:24:18;;;;;;;0.32;0.17;;;24.90;93.10;;;;;;5037416;28;20433;-83
2022/09/12 12:26:56;;;;;;;2.55;0.60;;;24.80;95.50;;;;;;5036573;28;20125;-83
2022/09/12 12:29:22;;;;;;;0.00;0.00;;;24.80;94.80;;;;;;5037200;28;20103;-83
2022/09/12 12:32:05;;;;;;;0.10;0.10;;;24.90;95.80;;;;;;5036957;28;20118;-83
2022/09/12 12:34:42;;;;;;;0.75;0.30;;;25.00;94.80;;;;;;5020554;28;20041;-83
2022/09/12 12:37:19;;;;;;;0.20;0.20;;;25.10;93.60;;;;;;5036996;28;20052;-84
2022/09/12 12:39:51;;;;;;;0.15;0.10;;;25.00;93.60;;;;;;5019841;28;20088;-83
2022/09/12 12:42:40;;;;;;;0.15;0.08;;;25.00;93.30;;;;;;5020295;28;20076;-83
2022/09/12 12:45:08;;;;;;;0.20;0.20;;;24.90;94.30;;;;;;5042818;28;20049;-83
2022/09/12 12:47:36;;;;;;;1.90;0.45;;;25.00;93.90;;;;;;5020392;28;20499;-83
2022/09/12 12:50:11;;;;;;;0.03;0.03;;;25.00;94.00;;;;;;5051526;28;20105;-83
2022/09/12 12:52:45;;;;;;;0.10;0.00;;;25.10;93.30;;;;;;5057778;28;20098;-83
2022/09/12 12:55:47;;;;;;;0.63;0.30;;;25.10;93.00;;;;;;5057178;28;20056;-83
2022/09/12 12:58:36;;;;;;;0.20;0.10;;;25.20;93.20;;;;;;5036383;28;20098;-83
2022/09/12 13:01:10;;;;;;;0.17;0.00;;;25.20;92.70;;;;;;5020092;28;20087;-83
2022/09/12 13:03:37;;;;;;;0.20;0.10;;;25.40;92.10;;;;;;5036258;28;20143;-82
2022/09/12 13:06:07;;;;;;;0.22;0.20;;;25.40;91.20;;;;;;5036398;28;20045;-83
2022/09/12 13:08:35;;;;;;;0.22;0.22;;;25.40;91.40;;;;;;5035823;28;20057;-83
2022/09/12 13:11:26;;;;;;;0.00;0.00;;;25.40;92.70;;;;;;5036738;28;20044;-83
2022/09/12 13:13:58;;;;;;;0.05;0.00;;;25.50;92.80;;;;;;5019798;28;20045;-83
2022/09/12 13:16:30;;;;;;;0.00;0.00;;;25.50;92.10;;;;;;5035926;28;20049;-83
2022/09/12 13:19:02;;;;;;;0.05;0.05;;;25.40;91.30;;;;;;5019268;28;20041;-83
2022/09/12 13:21:27;;;;;;;0.08;0.08;;;25.30;91.80;;;;;;5035915;28;20087;-84